Portada
METAR-TAF:

METAR-TAF

Aeroports :

Kuujjuaq, Quebec, Canadà

latitud: 58-06N, longitud: 068-25W, altitud: 37 m

Observació

L'informe es va fer fa 42 minuts, a les 00:00 UTC
Vent 6 kt del Sud-Oest
Temperatura -1°C
Humitat 74%
Pressió 1021 hPa
Visibilitat: 24.1 km
Núvols disperses a una alçada de 5000 ft
Cel ennuvolat a una alçada de 24000 ft

METAR: CYVP 220000Z 23006KT 15SM SCT050 BKN240 M01/M05 A3016 RMK SC4CI2 AURBO SLP219

Hora: 20:42 (00:42 UTC)

Pronòstic

L'informe es va fer fa 1 hora i 0 minuts, a les 23:42 UTC
Pronòstic vàlid del 22 a les 00 UTC al 22 a les 12 UTC
Vent 8 kt del Sud/Sud-Oest
Visibilitat: 10 km
Cel ennuvolat a una alçada de 4000 ft
A partir de les 22 a les 0300 UTC
Vent 5 kt del Sud/Sud-Oest
Visibilitat: 10 km
Cel ennuvolat a una alçada de 3000 ft
Temporalment
l' 22 a les 03 UTC al 22 a les 12 UTC
Cel ennuvolat a una alçada de 2000 ft

TAF: CYVP 212342Z 2200/2212 21008KT P6SM BKN040 FM220300 21005KT P6SM BKN030 TEMPO 2203/2212 BKN020 RMK NXT FCST BY 220600Z

Observacions i pronòstics meteorològics de més de 4000 aeroports (METAR i TAF).

Les estacions disponibles són els punts grocs i vermells al mapa.

Posi el ratolí al punt desitjat per veure el nom de l'estació.

Feu clic per veure les observacions i els pronòstics meteorològics.

Per canviar el mapa: feu clic els botons verds amb una creu de color negre per apropar; al botó verd amb un guió per allunyar la imatge; o en les fletxes verdes per a mapes adjacents.


METAR-TAF: